TimeCST,TemperatureF,Dew PointF,Humidity,Sea Level PressureIn,VisibilityMPH,Wind Direction,Wind SpeedMPH,Gust SpeedMPH,PrecipitationIn,Events,Conditions,WindDirDegrees,DateUTC
12:15 AM,39.2,24.8,56,29.57,10.0,SSE,15.0,-,N/A,,Clear,160,2013-02-18 06:15:00
12:35 AM,37.4,26.6,65,29.57,10.0,SSE,11.5,-,N/A,,Clear,160,2013-02-18 06:35:00
12:55 AM,37.4,26.6,65,29.57,10.0,South,11.5,-,N/A,,Clear,170,2013-02-18 06:55:00
1:15 AM,37.4,26.6,65,29.57,10.0,South,10.4,-,N/A,,Clear,170,2013-02-18 07:15:00
1:35 AM,37.4,26.6,65,29.57,10.0,South,11.5,-,N/A,,Clear,170,2013-02-18 07:35:00
1:55 AM,37.4,26.6,65,29.56,10.0,South,10.4,-,N/A,,Clear,190,2013-02-18 07:55:00
2:15 AM,37.4,26.6,65,29.57,10.0,South,9.2,-,N/A,,Clear,180,2013-02-18 08:15:00
2:35 AM,37.4,26.6,65,29.56,10.0,South,11.5,-,N/A,,Clear,180,2013-02-18 08:35:00
2:55 AM,39.2,26.6,61,29.56,10.0,South,10.4,-,N/A,,Clear,190,2013-02-18 08:55:00
3:15 AM,39.2,26.6,61,29.55,10.0,South,6.9,-,N/A,,Clear,180,2013-02-18 09:15:00
3:55 AM,37.4,26.6,65,29.55,10.0,South,9.2,-,N/A,,Clear,180,2013-02-18 09:55:00
4:15 AM,37.4,26.6,65,29.55,10.0,SE,4.6,-,N/A,,Clear,130,2013-02-18 10:15:00
4:35 AM,35.6,26.6,70,29.55,10.0,ESE,6.9,-,N/A,,Clear,120,2013-02-18 10:35:00
4:55 AM,35.6,26.6,70,29.55,10.0,SE,5.8,-,N/A,,Clear,130,2013-02-18 10:55:00
5:15 AM,37.4,28.4,70,29.56,10.0,SE,5.8,-,N/A,,Clear,140,2013-02-18 11:15:00
5:35 AM,37.4,28.4,70,29.56,10.0,Calm,Calm,-,N/A,,Clear,0,2013-02-18 11:35:00
5:55 AM,35.6,26.6,70,29.55,10.0,South,6.9,-,N/A,,Clear,170,2013-02-18 11:55:00
6:15 AM,35.6,26.6,70,29.56,10.0,SSE,5.8,-,N/A,,Clear,150,2013-02-18 12:15:00
6:35 AM,37.4,26.6,65,29.56,10.0,SE,8.1,-,N/A,,Clear,140,2013-02-18 12:35:00
6:55 AM,39.2,28.4,65,29.56,10.0,SSE,10.4,-,N/A,,Clear,150,2013-02-18 12:55:00
7:15 AM,39.2,28.4,65,29.57,10.0,SE,10.4,-,N/A,,Clear,140,2013-02-18 13:15:00
7:35 AM,39.2,28.4,65,29.58,10.0,SE,11.5,-,N/A,,Clear,140,2013-02-18 13:35:00
7:55 AM,39.2,28.4,65,29.58,10.0,SE,12.7,-,N/A,,Clear,140,2013-02-18 13:55:00
8:15 AM,39.2,28.4,65,29.60,10.0,SE,10.4,-,N/A,,Partly Cloudy,140,2013-02-18 14:15:00
8:35 AM,39.2,28.4,65,29.60,10.0,SE,12.7,-,N/A,,Mostly Cloudy,130,2013-02-18 14:35:00
8:55 AM,39.2,28.4,65,29.60,9.0,SE,16.1,-,N/A,,Overcast,130,2013-02-18 14:55:00
9:15 AM,41.0,28.4,61,29.59,10.0,East,16.1,25.3,N/A,,Overcast,100,2013-02-18 15:15:00
9:35 AM,37.4,28.4,70,29.61,8.0,NW,26.5,33.4,N/A,,Overcast,320,2013-02-18 15:35:00
9:55 AM,35.6,24.8,65,29.63,9.0,NW,23.0,34.5,N/A,,Overcast,310,2013-02-18 15:55:00
10:15 AM,33.8,21.2,60,29.63,10.0,NW,21.9,39.1,N/A,,Overcast,320,2013-02-18 16:15:00
10:35 AM,32.0,19.4,60,29.66,10.0,WNW,20.7,33.4,N/A,,Overcast,300,2013-02-18 16:35:00
10:55 AM,32.0,19.4,60,29.67,10.0,WNW,25.3,32.2,N/A,,Overcast,300,2013-02-18 16:55:00
11:15 AM,30.2,19.4,64,29.67,10.0,WNW,27.6,32.2,N/A,,Overcast,300,2013-02-18 17:15:00
11:35 AM,30.2,19.4,64,29.67,10.0,WNW,25.3,34.5,N/A,,Overcast,300,2013-02-18 17:35:00
11:55 AM,30.2,17.6,60,29.67,10.0,WNW,28.8,35.7,N/A,,Overcast,290,2013-02-18 17:55:00
12:15 PM,30.2,17.6,60,29.67,10.0,WNW,24.2,34.5,N/A,,Overcast,290,2013-02-18 18:15:00
12:35 PM,28.4,17.6,64,29.68,10.0,East,27.6,35.7,N/A,,Overcast,90,2013-02-18 18:35:00
12:55 PM,28.4,15.8,59,29.69,10.0,East,27.6,34.5,N/A,,Overcast,80,2013-02-18 18:55:00
1:15 PM,26.6,14.0,59,29.70,10.0,ENE,20.7,36.8,N/A,,Overcast,70,2013-02-18 19:15:00
1:35 PM,26.6,12.2,55,29.71,9.0,ENE,23.0,35.7,N/A,,Overcast,70,2013-02-18 19:35:00
1:55 PM,26.6,12.2,55,29.71,10.0,ENE,31.1,35.7,N/A,,Overcast,70,2013-02-18 19:55:00
2:15 PM,24.8,12.2,59,29.72,10.0,ENE,31.1,35.7,N/A,,Overcast,70,2013-02-18 20:15:00
2:35 PM,24.8,12.2,59,29.73,10.0,ENE,25.3,34.5,N/A,,Overcast,70,2013-02-18 20:35:00
2:55 PM,24.8,10.4,54,29.74,10.0,ENE,26.5,33.4,N/A,,Overcast,70,2013-02-18 20:55:00
3:15 PM,23.0,8.6,54,29.75,10.0,ENE,27.6,38.0,N/A,,Overcast,60,2013-02-18 21:15:00
3:35 PM,23.0,8.6,54,29.75,10.0,ENE,26.5,35.7,N/A,,Overcast,60,2013-02-18 21:35:00
3:55 PM,23.0,8.6,54,29.76,9.0,ENE,29.9,39.1,N/A,,Overcast,70,2013-02-18 21:55:00
4:15 PM,21.2,6.8,54,29.77,10.0,ENE,32.2,39.1,N/A,,Overcast,70,2013-02-18 22:15:00
4:35 PM,19.4,8.6,63,29.78,7.0,ENE,24.2,31.1,N/A,,Overcast,70,2013-02-18 22:35:00
4:55 PM,19.4,5.0,54,29.78,7.0,East,26.5,40.3,N/A,,Overcast,90,2013-02-18 22:55:00
5:15 PM,-9999,-9999,N/A,29.78,6.0,West,28.8,38.0,N/A,,Overcast,280,2013-02-18 23:15:00
5:35 PM,17.6,3.2,53,29.79,10.0,South,29.9,36.8,N/A,,Overcast,170,2013-02-18 23:35:00
5:55 PM,17.6,5.0,58,29.79,10.0,West,27.6,36.8,N/A,,Overcast,280,2013-02-18 23:55:00
6:15 PM,15.8,3.2,58,29.81,10.0,ENE,25.3,38.0,N/A,,Mostly Cloudy,70,2013-02-19 00:15:00
6:35 PM,15.8,6.8,68,29.81,3.0,ENE,29.9,36.8,N/A,,Overcast,70,2013-02-19 00:35:00
6:55 PM,15.8,1.4,53,29.82,10.0,ENE,26.5,35.7,N/A,,Mostly Cloudy,70,2013-02-19 00:55:00
7:15 PM,14.0,5.0,67,29.82,8.0,ENE,31.1,41.4,N/A,,Mostly Cloudy,70,2013-02-19 01:15:00
7:35 PM,12.2,3.2,67,29.83,9.0,East,26.5,38.0,N/A,,Overcast,80,2013-02-19 01:35:00
7:55 PM,14.0,1.4,57,29.83,9.0,ENE,31.1,41.4,N/A,,Overcast,70,2013-02-19 01:55:00
8:15 PM,12.2,1.4,62,29.83,9.0,ENE,31.1,39.1,N/A,,Overcast,70,2013-02-19 02:15:00
8:35 PM,12.2,1.4,62,29.84,4.0,ENE,24.2,40.3,N/A,,Overcast,70,2013-02-19 02:35:00
8:55 PM,10.4,3.2,73,29.85,1.8,ENE,28.8,35.7,N/A,,Overcast,70,2013-02-19 02:55:00
9:15 PM,10.4,1.4,67,29.85,1.8,East,24.2,31.1,N/A,,Overcast,80,2013-02-19 03:15:00
9:35 PM,10.4,1.4,67,29.85,2.5,ENE,34.5,41.4,N/A,,Overcast,70,2013-02-19 03:35:00
9:55 PM,10.4,-0.4,62,29.86,5.0,ENE,21.9,36.8,N/A,,Overcast,70,2013-02-19 03:55:00
10:15 PM,8.6,3.2,79,29.86,1.5,ENE,23.0,31.1,N/A,,Overcast,70,2013-02-19 04:15:00
10:35 PM,8.6,1.4,73,29.87,0.8,ENE,21.9,32.2,N/A,,Overcast,60,2013-02-19 04:35:00
10:55 PM,8.6,-0.4,67,29.87,3.0,ENE,29.9,40.3,N/A,,Overcast,70,2013-02-19 04:55:00
11:15 PM,6.8,1.4,79,29.88,1.5,ENE,27.6,40.3,N/A,,Overcast,70,2013-02-19 05:15:00
11:35 PM,6.8,-2.2,67,29.89,2.0,ENE,29.9,40.3,N/A,,Overcast,70,2013-02-19 05:35:00
11:55 PM,6.8,-4.0,61,29.90,8.0,ENE,33.4,39.1,N/A,,Overcast,60,2013-02-19 05:55:00